sensor_id;sensor_type;location;lat;lon;timestamp;P1;durP1;ratioP1;P2;durP2;ratioP2
21827;SDS011;11076;47.942;11.804;2022-12-20T00:03:31;3.10;;;2.47;;
21827;SDS011;11076;47.942;11.804;2022-12-20T00:08:33;2.50;;;2.10;;
21827;SDS011;11076;47.942;11.804;2022-12-20T00:13:36;4.03;;;2.93;;
21827;SDS011;11076;47.942;11.804;2022-12-20T00:18:39;3.47;;;2.70;;
21827;SDS011;11076;47.942;11.804;2022-12-20T00:23:42;4.90;;;2.47;;
21827;SDS011;11076;47.942;11.804;2022-12-20T00:28:45;1.97;;;1.77;;
21827;SDS011;11076;47.942;11.804;2022-12-20T00:33:48;2.80;;;1.90;;
21827;SDS011;11076;47.942;11.804;2022-12-20T00:38:52;2.30;;;1.93;;
21827;SDS011;11076;47.942;11.804;2022-12-20T00:43:56;3.33;;;2.10;;
21827;SDS011;11076;47.942;11.804;2022-12-20T00:48:58;2.30;;;1.90;;
21827;SDS011;11076;47.942;11.804;2022-12-20T00:54:01;3.27;;;2.10;;
21827;SDS011;11076;47.942;11.804;2022-12-20T00:59:03;2.70;;;1.80;;
21827;SDS011;11076;47.942;11.804;2022-12-20T01:04:05;1.90;;;1.70;;
21827;SDS011;11076;47.942;11.804;2022-12-20T01:09:09;1.90;;;1.53;;
21827;SDS011;11076;47.942;11.804;2022-12-20T01:14:13;1.70;;;1.30;;
21827;SDS011;11076;47.942;11.804;2022-12-20T01:19:17;2.93;;;1.63;;
21827;SDS011;11076;47.942;11.804;2022-12-20T01:24:20;4.00;;;2.00;;
21827;SDS011;11076;47.942;11.804;2022-12-20T01:29:22;3.90;;;2.10;;
21827;SDS011;11076;47.942;11.804;2022-12-20T01:34:24;3.30;;;1.90;;
21827;SDS011;11076;47.942;11.804;2022-12-20T01:39:27;2.37;;;1.70;;
21827;SDS011;11076;47.942;11.804;2022-12-20T01:49:36;22.70;;;5.13;;
21827;SDS011;11076;47.942;11.804;2022-12-20T01:54:50;12.43;;;4.27;;
21827;SDS011;11076;47.942;11.804;2022-12-20T01:59:56;9.00;;;3.77;;
21827;SDS011;11076;47.942;11.804;2022-12-20T02:04:59;7.23;;;3.00;;
21827;SDS011;11076;47.942;11.804;2022-12-20T02:10:04;6.37;;;2.93;;
21827;SDS011;11076;47.942;11.804;2022-12-20T02:30:59;5.10;;;1.57;;
21827;SDS011;11076;47.942;11.804;2022-12-20T02:36:07;2.50;;;2.17;;
21827;SDS011;11076;47.942;11.804;2022-12-20T02:46:16;3.60;;;2.10;;
21827;SDS011;11076;47.942;11.804;2022-12-20T02:51:22;2.43;;;2.10;;
21827;SDS011;11076;47.942;11.804;2022-12-20T02:57:00;4.83;;;2.23;;
21827;SDS011;11076;47.942;11.804;2022-12-20T03:01:58;3.27;;;2.40;;
21827;SDS011;11076;47.942;11.804;2022-12-20T03:12:04;3.37;;;2.30;;
21827;SDS011;11076;47.942;11.804;2022-12-20T03:17:10;4.73;;;2.40;;
21827;SDS011;11076;47.942;11.804;2022-12-20T03:22:12;4.07;;;2.27;;
21827;SDS011;11076;47.942;11.804;2022-12-20T03:27:15;2.67;;;1.80;;
21827;SDS011;11076;47.942;11.804;2022-12-20T03:32:18;2.80;;;2.17;;
21827;SDS011;11076;47.942;11.804;2022-12-20T03:37:21;2.83;;;1.63;;
21827;SDS011;11076;47.942;11.804;2022-12-20T03:42:24;2.23;;;1.97;;
21827;SDS011;11076;47.942;11.804;2022-12-20T03:47:27;1.87;;;1.53;;
21827;SDS011;11076;47.942;11.804;2022-12-20T03:52:30;1.63;;;1.53;;
21827;SDS011;11076;47.942;11.804;2022-12-20T03:57:33;2.03;;;1.40;;
21827;SDS011;11076;47.942;11.804;2022-12-20T04:02:36;2.20;;;1.33;;
21827;SDS011;11076;47.942;11.804;2022-12-20T04:07:38;2.17;;;1.50;;
21827;SDS011;11076;47.942;11.804;2022-12-20T04:12:41;2.30;;;1.50;;
21827;SDS011;11076;47.942;11.804;2022-12-20T04:17:45;1.30;;;1.20;;
21827;SDS011;11076;47.942;11.804;2022-12-20T04:22:48;3.27;;;1.60;;
21827;SDS011;11076;47.942;11.804;2022-12-20T04:27:53;1.67;;;1.30;;
21827;SDS011;11076;47.942;11.804;2022-12-20T04:32:55;3.10;;;1.30;;
21827;SDS011;11076;47.942;11.804;2022-12-20T04:38:00;1.13;;;1.03;;
21827;SDS011;11076;47.942;11.804;2022-12-20T04:43:02;6.27;;;1.67;;
21827;SDS011;11076;47.942;11.804;2022-12-20T04:48:05;2.73;;;1.40;;
21827;SDS011;11076;47.942;11.804;2022-12-20T04:53:22;2.50;;;1.40;;
21827;SDS011;11076;47.942;11.804;2022-12-20T04:58:44;1.10;;;1.00;;
21827;SDS011;11076;47.942;11.804;2022-12-20T05:03:48;3.00;;;1.40;;
21827;SDS011;11076;47.942;11.804;2022-12-20T05:08:51;1.57;;;1.47;;
21827;SDS011;11076;47.942;11.804;2022-12-20T05:13:54;4.20;;;3.67;;
21827;SDS011;11076;47.942;11.804;2022-12-20T05:18:56;3.60;;;1.73;;
21827;SDS011;11076;47.942;11.804;2022-12-20T05:23:59;2.23;;;1.90;;
21827;SDS011;11076;47.942;11.804;2022-12-20T05:29:32;4.83;;;2.03;;
21827;SDS011;11076;47.942;11.804;2022-12-20T05:34:35;1.50;;;1.40;;
21827;SDS011;11076;47.942;11.804;2022-12-20T05:39:38;2.47;;;1.57;;
21827;SDS011;11076;47.942;11.804;2022-12-20T05:44:45;1.80;;;1.10;;
21827;SDS011;11076;47.942;11.804;2022-12-20T05:49:49;1.90;;;1.60;;
21827;SDS011;11076;47.942;11.804;2022-12-20T05:54:51;1.50;;;1.40;;
21827;SDS011;11076;47.942;11.804;2022-12-20T05:59:57;2.20;;;1.73;;
21827;SDS011;11076;47.942;11.804;2022-12-20T06:04:59;22.57;;;6.57;;
21827;SDS011;11076;47.942;11.804;2022-12-20T06:10:02;8.97;;;2.23;;
21827;SDS011;11076;47.942;11.804;2022-12-20T06:15:23;1.40;;;1.20;;
21827;SDS011;11076;47.942;11.804;2022-12-20T06:20:26;1.30;;;1.20;;
21827;SDS011;11076;47.942;11.804;2022-12-20T06:25:31;1.90;;;1.70;;
21827;SDS011;11076;47.942;11.804;2022-12-20T06:30:34;3.87;;;1.40;;
21827;SDS011;11076;47.942;11.804;2022-12-20T06:35:41;4.60;;;1.67;;
21827;SDS011;11076;47.942;11.804;2022-12-20T06:40:43;4.53;;;1.70;;
21827;SDS011;11076;47.942;11.804;2022-12-20T06:45:46;1.63;;;1.20;;
21827;SDS011;11076;47.942;11.804;2022-12-20T06:50:48;1.97;;;1.77;;
21827;SDS011;11076;47.942;11.804;2022-12-20T06:55:55;3.13;;;2.47;;
21827;SDS011;11076;47.942;11.804;2022-12-20T07:00:58;8.40;;;4.27;;
21827;SDS011;11076;47.942;11.804;2022-12-20T07:06:01;8.83;;;4.33;;
21827;SDS011;11076;47.942;11.804;2022-12-20T07:11:04;10.10;;;4.23;;
21827;SDS011;11076;47.942;11.804;2022-12-20T07:16:07;7.17;;;3.97;;
21827;SDS011;11076;47.942;11.804;2022-12-20T07:21:09;10.23;;;4.67;;
21827;SDS011;11076;47.942;11.804;2022-12-20T07:26:12;12.27;;;4.80;;
21827;SDS011;11076;47.942;11.804;2022-12-20T07:31:15;7.67;;;4.53;;
21827;SDS011;11076;47.942;11.804;2022-12-20T07:36:18;9.37;;;4.17;;
21827;SDS011;11076;47.942;11.804;2022-12-20T07:41:20;6.40;;;3.50;;
21827;SDS011;11076;47.942;11.804;2022-12-20T07:46:23;3.80;;;2.40;;
21827;SDS011;11076;47.942;11.804;2022-12-20T07:51:27;3.57;;;2.30;;
21827;SDS011;11076;47.942;11.804;2022-12-20T07:56:36;2.83;;;2.50;;
21827;SDS011;11076;47.942;11.804;2022-12-20T08:01:42;3.23;;;1.87;;
21827;SDS011;11076;47.942;11.804;2022-12-20T08:06:46;13.20;;;2.97;;
21827;SDS011;11076;47.942;11.804;2022-12-20T08:11:50;3.00;;;2.10;;
21827;SDS011;11076;47.942;11.804;2022-12-20T08:16:54;1.83;;;1.63;;
21827;SDS011;11076;47.942;11.804;2022-12-20T08:21:56;2.77;;;1.90;;
21827;SDS011;11076;47.942;11.804;2022-12-20T08:26:58;17.27;;;8.10;;
21827;SDS011;11076;47.942;11.804;2022-12-20T08:32:01;6.63;;;2.63;;
21827;SDS011;11076;47.942;11.804;2022-12-20T08:37:03;8.27;;;3.50;;
21827;SDS011;11076;47.942;11.804;2022-12-20T08:42:08;9.63;;;4.73;;
21827;SDS011;11076;47.942;11.804;2022-12-20T08:47:11;6.30;;;1.83;;
21827;SDS011;11076;47.942;11.804;2022-12-20T08:52:13;1.33;;;1.23;;
21827;SDS011;11076;47.942;11.804;2022-12-20T08:57:16;1.17;;;1.10;;
21827;SDS011;11076;47.942;11.804;2022-12-20T09:02:18;10.23;;;1.87;;
21827;SDS011;11076;47.942;11.804;2022-12-20T09:07:20;3.70;;;1.60;;
21827;SDS011;11076;47.942;11.804;2022-12-20T09:12:23;2.13;;;1.73;;
21827;SDS011;11076;47.942;11.804;2022-12-20T09:17:25;5.50;;;1.43;;
21827;SDS011;11076;47.942;11.804;2022-12-20T09:22:28;10.63;;;3.97;;
21827;SDS011;11076;47.942;11.804;2022-12-20T09:27:30;8.17;;;5.23;;
21827;SDS011;11076;47.942;11.804;2022-12-20T09:32:33;16.00;;;9.93;;
21827;SDS011;11076;47.942;11.804;2022-12-20T09:37:35;6.83;;;3.87;;
21827;SDS011;11076;47.942;11.804;2022-12-20T09:42:37;6.80;;;4.20;;
21827;SDS011;11076;47.942;11.804;2022-12-20T09:47:40;2.53;;;2.33;;
21827;SDS011;11076;47.942;11.804;2022-12-20T09:52:46;5.30;;;3.90;;
21827;SDS011;11076;47.942;11.804;2022-12-20T10:04:05;4.40;;;3.23;;
21827;SDS011;11076;47.942;11.804;2022-12-20T10:25:39;1.53;;;1.43;;
21827;SDS011;11076;47.942;11.804;2022-12-20T10:30:43;3.43;;;1.30;;
21827;SDS011;11076;47.942;11.804;2022-12-20T10:35:45;4.03;;;1.50;;
21827;SDS011;11076;47.942;11.804;2022-12-20T10:46:21;4.97;;;2.30;;
21827;SDS011;11076;47.942;11.804;2022-12-20T10:51:25;4.93;;;1.60;;
21827;SDS011;11076;47.942;11.804;2022-12-20T10:56:28;1.97;;;1.60;;
21827;SDS011;11076;47.942;11.804;2022-12-20T11:01:34;1.37;;;1.27;;
21827;SDS011;11076;47.942;11.804;2022-12-20T11:06:39;2.43;;;1.80;;
21827;SDS011;11076;47.942;11.804;2022-12-20T11:11:59;2.00;;;1.80;;
21827;SDS011;11076;47.942;11.804;2022-12-20T11:22:55;2.17;;;1.57;;
21827;SDS011;11076;47.942;11.804;2022-12-20T11:38:49;3.00;;;2.13;;
21827;SDS011;11076;47.942;11.804;2022-12-20T11:50:14;2.03;;;1.83;;
21827;SDS011;11076;47.942;11.804;2022-12-20T11:55:16;2.07;;;1.87;;
21827;SDS011;11076;47.942;11.804;2022-12-20T12:00:22;2.93;;;1.87;;
21827;SDS011;11076;47.942;11.804;2022-12-20T12:05:27;1.97;;;1.53;;
21827;SDS011;11076;47.942;11.804;2022-12-20T12:10:39;2.83;;;1.73;;
21827;SDS011;11076;47.942;11.804;2022-12-20T12:16:31;4.80;;;2.43;;
21827;SDS011;11076;47.942;11.804;2022-12-20T12:26:52;2.50;;;1.60;;
21827;SDS011;11076;47.942;11.804;2022-12-20T12:32:03;2.20;;;1.97;;
21827;SDS011;11076;47.942;11.804;2022-12-20T12:48:22;4.40;;;3.20;;
21827;SDS011;11076;47.942;11.804;2022-12-20T12:58:31;6.37;;;2.80;;
21827;SDS011;11076;47.942;11.804;2022-12-20T13:04:09;6.40;;;4.13;;
21827;SDS011;11076;47.942;11.804;2022-12-20T13:14:45;7.80;;;3.63;;
21827;SDS011;11076;47.942;11.804;2022-12-20T13:19:34;5.00;;;3.03;;
21827;SDS011;11076;47.942;11.804;2022-12-20T13:24:39;6.90;;;2.97;;
21827;SDS011;11076;47.942;11.804;2022-12-20T13:40:43;2.73;;;2.37;;
21827;SDS011;11076;47.942;11.804;2022-12-20T13:45:53;4.40;;;2.80;;
21827;SDS011;11076;47.942;11.804;2022-12-20T13:51:02;5.77;;;2.97;;
21827;SDS011;11076;47.942;11.804;2022-12-20T14:01:29;5.83;;;2.80;;
21827;SDS011;11076;47.942;11.804;2022-12-20T14:06:32;4.53;;;2.87;;
21827;SDS011;11076;47.942;11.804;2022-12-20T14:11:35;3.67;;;3.00;;
21827;SDS011;11076;47.942;11.804;2022-12-20T14:16:48;5.53;;;3.63;;
21827;SDS011;11076;47.942;11.804;2022-12-20T14:21:50;4.57;;;3.20;;
21827;SDS011;11076;47.942;11.804;2022-12-20T14:26:53;5.07;;;3.90;;
21827;SDS011;11076;47.942;11.804;2022-12-20T14:31:56;7.53;;;3.90;;
21827;SDS011;11076;47.942;11.804;2022-12-20T14:42:40;5.80;;;4.27;;
21827;SDS011;11076;47.942;11.804;2022-12-20T14:53:19;7.10;;;4.77;;
21827;SDS011;11076;47.942;11.804;2022-12-20T15:03:26;6.23;;;3.90;;
21827;SDS011;11076;47.942;11.804;2022-12-20T15:08:30;8.00;;;4.57;;
21827;SDS011;11076;47.942;11.804;2022-12-20T15:13:35;14.77;;;5.07;;
21827;SDS011;11076;47.942;11.804;2022-12-20T15:18:42;7.83;;;5.40;;
21827;SDS011;11076;47.942;11.804;2022-12-20T15:23:47;10.30;;;6.07;;
21827;SDS011;11076;47.942;11.804;2022-12-20T15:28:52;9.40;;;5.70;;
21827;SDS011;11076;47.942;11.804;2022-12-20T15:33:55;12.43;;;7.90;;
21827;SDS011;11076;47.942;11.804;2022-12-20T15:39:01;12.87;;;6.23;;
21827;SDS011;11076;47.942;11.804;2022-12-20T15:44:13;15.13;;;9.00;;
21827;SDS011;11076;47.942;11.804;2022-12-20T15:49:19;11.00;;;5.80;;
21827;SDS011;11076;47.942;11.804;2022-12-20T15:54:27;8.10;;;4.93;;
21827;SDS011;11076;47.942;11.804;2022-12-20T15:59:37;11.43;;;7.03;;
21827;SDS011;11076;47.942;11.804;2022-12-20T16:05:00;13.47;;;7.77;;
21827;SDS011;11076;47.942;11.804;2022-12-20T16:10:02;9.93;;;6.90;;
21827;SDS011;11076;47.942;11.804;2022-12-20T16:15:08;13.60;;;7.27;;
21827;SDS011;11076;47.942;11.804;2022-12-20T16:20:20;15.03;;;8.43;;
21827;SDS011;11076;47.942;11.804;2022-12-20T16:25:33;11.10;;;7.27;;
21827;SDS011;11076;47.942;11.804;2022-12-20T16:30:37;17.53;;;10.53;;
21827;SDS011;11076;47.942;11.804;2022-12-20T16:35:40;16.77;;;9.57;;
21827;SDS011;11076;47.942;11.804;2022-12-20T16:40:43;17.57;;;9.67;;
21827;SDS011;11076;47.942;11.804;2022-12-20T16:45:45;13.83;;;8.83;;
21827;SDS011;11076;47.942;11.804;2022-12-20T16:50:47;10.73;;;7.60;;
21827;SDS011;11076;47.942;11.804;2022-12-20T16:55:50;14.23;;;7.30;;
21827;SDS011;11076;47.942;11.804;2022-12-20T17:00:52;14.80;;;8.57;;
21827;SDS011;11076;47.942;11.804;2022-12-20T17:05:54;34.97;;;12.23;;
21827;SDS011;11076;47.942;11.804;2022-12-20T17:10:58;13.03;;;8.00;;
21827;SDS011;11076;47.942;11.804;2022-12-20T17:16:00;11.37;;;8.10;;
21827;SDS011;11076;47.942;11.804;2022-12-20T17:21:03;16.00;;;10.10;;
21827;SDS011;11076;47.942;11.804;2022-12-20T17:26:25;24.53;;;14.93;;
21827;SDS011;11076;47.942;11.804;2022-12-20T17:31:36;32.33;;;17.80;;
21827;SDS011;11076;47.942;11.804;2022-12-20T17:36:40;25.77;;;15.47;;
21827;SDS011;11076;47.942;11.804;2022-12-20T17:41:43;26.83;;;15.80;;
21827;SDS011;11076;47.942;11.804;2022-12-20T17:46:46;23.90;;;13.17;;
21827;SDS011;11076;47.942;11.804;2022-12-20T17:51:49;17.67;;;10.60;;
21827;SDS011;11076;47.942;11.804;2022-12-20T17:56:54;18.67;;;10.83;;
21827;SDS011;11076;47.942;11.804;2022-12-20T18:01:59;24.43;;;15.70;;
21827;SDS011;11076;47.942;11.804;2022-12-20T18:07:02;29.10;;;14.20;;
21827;SDS011;11076;47.942;11.804;2022-12-20T18:12:05;30.13;;;15.07;;
21827;SDS011;11076;47.942;11.804;2022-12-20T18:17:09;24.40;;;11.60;;
21827;SDS011;11076;47.942;11.804;2022-12-20T18:22:12;17.60;;;11.07;;
21827;SDS011;11076;47.942;11.804;2022-12-20T18:27:14;20.37;;;11.77;;
21827;SDS011;11076;47.942;11.804;2022-12-20T18:32:17;16.77;;;11.33;;
21827;SDS011;11076;47.942;11.804;2022-12-20T18:37:19;52.27;;;29.97;;
21827;SDS011;11076;47.942;11.804;2022-12-20T18:42:21;42.03;;;22.50;;
21827;SDS011;11076;47.942;11.804;2022-12-20T18:47:24;58.40;;;31.40;;
21827;SDS011;11076;47.942;11.804;2022-12-20T18:52:26;32.83;;;18.60;;
21827;SDS011;11076;47.942;11.804;2022-12-20T18:57:29;49.13;;;25.60;;
21827;SDS011;11076;47.942;11.804;2022-12-20T19:02:31;29.50;;;16.97;;
21827;SDS011;11076;47.942;11.804;2022-12-20T19:07:33;18.63;;;10.30;;
21827;SDS011;11076;47.942;11.804;2022-12-20T19:12:36;14.20;;;8.47;;
21827;SDS011;11076;47.942;11.804;2022-12-20T19:17:38;24.87;;;19.33;;
21827;SDS011;11076;47.942;11.804;2022-12-20T19:22:41;10.67;;;7.07;;
21827;SDS011;11076;47.942;11.804;2022-12-20T19:27:43;6.27;;;4.90;;
21827;SDS011;11076;47.942;11.804;2022-12-20T19:32:45;10.97;;;6.80;;
21827;SDS011;11076;47.942;11.804;2022-12-20T19:37:48;10.60;;;5.97;;
21827;SDS011;11076;47.942;11.804;2022-12-20T19:42:51;11.43;;;7.17;;
21827;SDS011;11076;47.942;11.804;2022-12-20T19:47:53;12.60;;;7.47;;
21827;SDS011;11076;47.942;11.804;2022-12-20T19:52:55;6.50;;;3.97;;
21827;SDS011;11076;47.942;11.804;2022-12-20T19:57:58;7.30;;;4.60;;
21827;SDS011;11076;47.942;11.804;2022-12-20T20:03:00;15.17;;;9.17;;
21827;SDS011;11076;47.942;11.804;2022-12-20T20:08:02;9.47;;;6.30;;
21827;SDS011;11076;47.942;11.804;2022-12-20T20:13:05;6.80;;;3.50;;
21827;SDS011;11076;47.942;11.804;2022-12-20T20:18:08;5.00;;;3.40;;
21827;SDS011;11076;47.942;11.804;2022-12-20T20:23:10;7.97;;;4.90;;
21827;SDS011;11076;47.942;11.804;2022-12-20T20:28:13;8.63;;;4.27;;
21827;SDS011;11076;47.942;11.804;2022-12-20T20:33:16;6.03;;;4.10;;
21827;SDS011;11076;47.942;11.804;2022-12-20T20:38:18;6.73;;;4.47;;
21827;SDS011;11076;47.942;11.804;2022-12-20T20:43:21;6.43;;;3.87;;
21827;SDS011;11076;47.942;11.804;2022-12-20T20:48:23;4.27;;;3.50;;
21827;SDS011;11076;47.942;11.804;2022-12-20T20:53:26;5.50;;;3.70;;
21827;SDS011;11076;47.942;11.804;2022-12-20T20:58:32;4.53;;;3.33;;
21827;SDS011;11076;47.942;11.804;2022-12-20T21:03:35;5.03;;;3.20;;
21827;SDS011;11076;47.942;11.804;2022-12-20T21:08:38;5.87;;;3.07;;
21827;SDS011;11076;47.942;11.804;2022-12-20T21:13:40;3.43;;;3.10;;
21827;SDS011;11076;47.942;11.804;2022-12-20T21:18:43;3.53;;;2.90;;
21827;SDS011;11076;47.942;11.804;2022-12-20T21:23:45;6.23;;;2.77;;
21827;SDS011;11076;47.942;11.804;2022-12-20T21:28:48;2.97;;;2.70;;
21827;SDS011;11076;47.942;11.804;2022-12-20T21:33:51;3.77;;;3.03;;
21827;SDS011;11076;47.942;11.804;2022-12-20T21:38:54;3.20;;;2.90;;
21827;SDS011;11076;47.942;11.804;2022-12-20T21:43:58;3.80;;;2.33;;
21827;SDS011;11076;47.942;11.804;2022-12-20T21:49:01;3.97;;;2.53;;
21827;SDS011;11076;47.942;11.804;2022-12-20T21:54:04;3.70;;;2.30;;
21827;SDS011;11076;47.942;11.804;2022-12-20T21:59:08;2.73;;;2.10;;
21827;SDS011;11076;47.942;11.804;2022-12-20T22:04:11;2.40;;;1.87;;
21827;SDS011;11076;47.942;11.804;2022-12-20T22:09:14;2.47;;;2.03;;
21827;SDS011;11076;47.942;11.804;2022-12-20T22:14:18;2.23;;;1.63;;
21827;SDS011;11076;47.942;11.804;2022-12-20T22:19:20;1.93;;;1.40;;
21827;SDS011;11076;47.942;11.804;2022-12-20T22:24:22;2.40;;;1.63;;
21827;SDS011;11076;47.942;11.804;2022-12-20T22:29:25;3.77;;;1.30;;
21827;SDS011;11076;47.942;11.804;2022-12-20T22:34:27;5.10;;;1.17;;
21827;SDS011;11076;47.942;11.804;2022-12-20T22:39:29;2.77;;;1.40;;
21827;SDS011;11076;47.942;11.804;2022-12-20T22:44:32;1.87;;;1.67;;
21827;SDS011;11076;47.942;11.804;2022-12-20T22:49:34;2.77;;;1.90;;
21827;SDS011;11076;47.942;11.804;2022-12-20T22:54:36;4.53;;;2.80;;
21827;SDS011;11076;47.942;11.804;2022-12-20T22:59:39;2.07;;;1.83;;
21827;SDS011;11076;47.942;11.804;2022-12-20T23:04:41;3.60;;;2.10;;
21827;SDS011;11076;47.942;11.804;2022-12-20T23:09:44;5.30;;;2.37;;
21827;SDS011;11076;47.942;11.804;2022-12-20T23:14:46;2.87;;;1.77;;
21827;SDS011;11076;47.942;11.804;2022-12-20T23:20:07;4.07;;;2.07;;
21827;SDS011;11076;47.942;11.804;2022-12-20T23:25:28;2.57;;;1.93;;
21827;SDS011;11076;47.942;11.804;2022-12-20T23:30:31;2.83;;;2.00;;
21827;SDS011;11076;47.942;11.804;2022-12-20T23:35:33;1.40;;;1.30;;
21827;SDS011;11076;47.942;11.804;2022-12-20T23:40:38;2.10;;;1.43;;
21827;SDS011;11076;47.942;11.804;2022-12-20T23:45:41;2.23;;;1.70;;
21827;SDS011;11076;47.942;11.804;2022-12-20T23:50:43;1.23;;;0.87;;
21827;SDS011;11076;47.942;11.804;2022-12-20T23:55:56;2.30;;;1.83;;
